Pratica Di Mare, Italy

4:59 PM CEST on April 27, 2015 (GMT +0200)
Ardea | | Change Station
CLOSE
Current Station
Personal Weather Station
Location: Ardea, LAZIO
Elevation: 66 ft
Nearby Weather Stations
Active Advisory: Thunderstorms

Elev 66 ft 41.60 °N, 12.51 °E | Updated 41 seconds ago

Overcast
Overcast
62.8 °F
Feels Like 62.8 °F
N
10.7
Wind Variable Wind from East
Gusts 13.0 mph

Today
High -- | Low -- °F
--% Chance of Precip.
Yesterday
High -- | Low -- °F
Precip. -- in
6:13 AM 8:03 PM
Waxing Gibbous, 65% visible
Pressure 29.68 in
Visibility 6.2 miles
Clouds Scattered Clouds 2000 ft
Scattered Clouds 3500 ft
Dew Point 58 °F
Humidity 83%
Rainfall 0.00 in
Snow Depth Not available.
UV 3 out of 12
Pollen Not available.
Air Quality Not available.
Flu Activity Not available.
METAR LIRF 271450Z 13014KT 9999 -RA SCT020 SCT035 17/13 Q1005 NOSIG

More Conditions Fewer Conditions

Pressure 29.68 in
Visibility 6.2 miles
Clouds Scattered Clouds 2000 ft
Scattered Clouds 3500 ft
Dew Point 58 °F
Humidity 83%
Rainfall 0.00 in
Snow Depth Not available.
UV 3 out of 12
Pollen Not available.
Air Quality Not available.
Flu Activity Not available.
METAR LIRF 271450Z 13014KT 9999 -RA SCT020 SCT035 17/13 Q1005 NOSIG

More Conditions Fewer Conditions

10-Day Weather Forecast

Almanac

Astronomy

Apr. 27, 2015 Rise Set
Actual Time
Civil Twilight
Nautical Twilight
Astronomical Twilight
Moon
Length of Visible Light
Length of Day
Tomorrow will be .
, % of the Moon is Illuminated

Today's Extremes

Country Highs Country Lows

Community

WunderPhotos

Upload Photos

1,817,321 photos uploaded!

WunderBlogs® & News

Nearby

Air Quality

  Air Quality AQ Index Pollutant
Not available.

Snow Depth

Station Depth Elevation

Earthquake Activity

City Distance Mag. Time & Date
Minimum magnitude displayed is 2.5.

Coastal Water Temperatures

Place Temperature

Stations

Nearby Weather Stations

Station Location Temp. Windchill Dew Point Humidity Wind Precip. Elev Updated Type